sensor_id;sensor_type;location;lat;lon;timestamp;P1;durP1;ratioP1;P2;durP2;ratioP2
65581;SDS011;52231;40.090;18.348;2022-09-28T00:01:21;7.50;;;2.00;;
65581;SDS011;52231;40.090;18.348;2022-09-28T00:03:51;6.80;;;1.63;;
65581;SDS011;52231;40.090;18.348;2022-09-28T00:06:22;7.53;;;1.85;;
65581;SDS011;52231;40.090;18.348;2022-09-28T00:09:10;7.50;;;2.08;;
65581;SDS011;52231;40.090;18.348;2022-09-28T00:11:40;5.97;;;1.88;;
65581;SDS011;52231;40.090;18.348;2022-09-28T00:14:10;7.18;;;2.10;;
65581;SDS011;52231;40.090;18.348;2022-09-28T00:16:39;10.18;;;2.00;;
65581;SDS011;52231;40.090;18.348;2022-09-28T00:19:11;6.57;;;2.15;;
65581;SDS011;52231;40.090;18.348;2022-09-28T00:21:40;7.10;;;1.83;;
65581;SDS011;52231;40.090;18.348;2022-09-28T00:24:12;8.30;;;2.13;;
65581;SDS011;52231;40.090;18.348;2022-09-28T00:29:19;9.30;;;2.10;;
65581;SDS011;52231;40.090;18.348;2022-09-28T00:31:56;9.15;;;2.30;;
65581;SDS011;52231;40.090;18.348;2022-09-28T00:34:30;7.85;;;2.53;;
65581;SDS011;52231;40.090;18.348;2022-09-28T00:37:01;8.23;;;2.17;;
65581;SDS011;52231;40.090;18.348;2022-09-28T00:39:30;6.55;;;2.20;;
65581;SDS011;52231;40.090;18.348;2022-09-28T00:41:58;10.98;;;2.28;;
65581;SDS011;52231;40.090;18.348;2022-09-28T00:47:17;8.77;;;2.40;;
65581;SDS011;52231;40.090;18.348;2022-09-28T00:49:52;10.15;;;2.13;;
65581;SDS011;52231;40.090;18.348;2022-09-28T00:52:30;6.18;;;2.08;;
65581;SDS011;52231;40.090;18.348;2022-09-28T00:55:06;8.02;;;2.67;;
65581;SDS011;52231;40.090;18.348;2022-09-28T00:57:37;9.18;;;2.47;;
65581;SDS011;52231;40.090;18.348;2022-09-28T01:00:27;8.85;;;2.92;;
65581;SDS011;52231;40.090;18.348;2022-09-28T01:05:25;11.07;;;2.65;;
65581;SDS011;52231;40.090;18.348;2022-09-28T01:07:54;9.57;;;2.92;;
65581;SDS011;52231;40.090;18.348;2022-09-28T01:10:24;7.55;;;2.40;;
65581;SDS011;52231;40.090;18.348;2022-09-28T01:12:54;9.75;;;2.50;;
65581;SDS011;52231;40.090;18.348;2022-09-28T01:15:22;7.68;;;2.20;;
65581;SDS011;52231;40.090;18.348;2022-09-28T01:29:03;9.57;;;2.47;;
65581;SDS011;52231;40.090;18.348;2022-09-28T01:31:37;9.73;;;2.33;;
65581;SDS011;52231;40.090;18.348;2022-09-28T01:36:52;8.85;;;2.30;;
65581;SDS011;52231;40.090;18.348;2022-09-28T01:39:25;8.45;;;2.10;;
65581;SDS011;52231;40.090;18.348;2022-09-28T01:42:07;7.65;;;2.05;;
65581;SDS011;52231;40.090;18.348;2022-09-28T01:44:41;12.68;;;2.45;;
65581;SDS011;52231;40.090;18.348;2022-09-28T01:47:14;6.10;;;1.90;;
65581;SDS011;52231;40.090;18.348;2022-09-28T01:50:30;6.80;;;1.85;;
65581;SDS011;52231;40.090;18.348;2022-09-28T01:52:43;6.43;;;2.17;;
65581;SDS011;52231;40.090;18.348;2022-09-28T01:58:03;8.30;;;2.33;;
65581;SDS011;52231;40.090;18.348;2022-09-28T02:00:38;8.82;;;1.98;;
65581;SDS011;52231;40.090;18.348;2022-09-28T02:03:11;7.90;;;2.05;;
65581;SDS011;52231;40.090;18.348;2022-09-28T02:05:54;5.30;;;1.95;;
65581;SDS011;52231;40.090;18.348;2022-09-28T02:08:30;8.20;;;2.20;;
65581;SDS011;52231;40.090;18.348;2022-09-28T02:11:14;4.95;;;2.03;;
65581;SDS011;52231;40.090;18.348;2022-09-28T02:13:48;4.85;;;2.13;;
65581;SDS011;52231;40.090;18.348;2022-09-28T02:16:24;5.57;;;2.10;;
65581;SDS011;52231;40.090;18.348;2022-09-28T02:19:03;7.43;;;2.35;;
65581;SDS011;52231;40.090;18.348;2022-09-28T02:24:15;6.75;;;2.50;;
65581;SDS011;52231;40.090;18.348;2022-09-28T02:26:51;9.48;;;2.38;;
65581;SDS011;52231;40.090;18.348;2022-09-28T02:29:23;6.78;;;2.35;;
65581;SDS011;52231;40.090;18.348;2022-09-28T02:31:52;10.07;;;3.60;;
65581;SDS011;52231;40.090;18.348;2022-09-28T02:34:20;12.35;;;3.60;;
65581;SDS011;52231;40.090;18.348;2022-09-28T02:36:48;9.73;;;3.50;;
65581;SDS011;52231;40.090;18.348;2022-09-28T02:45:21;12.13;;;3.10;;
65581;SDS011;52231;40.090;18.348;2022-09-28T02:48:07;12.75;;;3.75;;
65581;SDS011;52231;40.090;18.348;2022-09-28T02:54:12;12.15;;;3.20;;
65581;SDS011;52231;40.090;18.348;2022-09-28T03:02:28;8.57;;;2.35;;
65581;SDS011;52231;40.090;18.348;2022-09-28T03:05:12;8.23;;;2.20;;
65581;SDS011;52231;40.090;18.348;2022-09-28T03:08:05;13.27;;;2.72;;
65581;SDS011;52231;40.090;18.348;2022-09-28T03:10:47;9.65;;;2.47;;
65581;SDS011;52231;40.090;18.348;2022-09-28T03:13:23;9.32;;;2.53;;
65581;SDS011;52231;40.090;18.348;2022-09-28T03:16:04;7.25;;;3.05;;
65581;SDS011;52231;40.090;18.348;2022-09-28T03:21:14;8.88;;;2.88;;
65581;SDS011;52231;40.090;18.348;2022-09-28T03:23:42;20.60;;;4.28;;
65581;SDS011;52231;40.090;18.348;2022-09-28T03:26:10;34.85;;;5.15;;
65581;SDS011;52231;40.090;18.348;2022-09-28T03:28:39;21.90;;;4.88;;
65581;SDS011;52231;40.090;18.348;2022-09-28T03:31:12;19.00;;;4.25;;
65581;SDS011;52231;40.090;18.348;2022-09-28T03:33:40;19.23;;;5.20;;
65581;SDS011;52231;40.090;18.348;2022-09-28T03:38:37;22.10;;;5.82;;
65581;SDS011;52231;40.090;18.348;2022-09-28T03:41:06;19.98;;;6.07;;
65581;SDS011;52231;40.090;18.348;2022-09-28T03:43:39;18.23;;;5.45;;
65581;SDS011;52231;40.090;18.348;2022-09-28T03:46:08;15.98;;;5.50;;
65581;SDS011;52231;40.090;18.348;2022-09-28T03:48:41;22.27;;;5.80;;
65581;SDS011;52231;40.090;18.348;2022-09-28T03:51:10;17.52;;;5.55;;
65581;SDS011;52231;40.090;18.348;2022-09-28T03:53:39;23.17;;;6.18;;
65581;SDS011;52231;40.090;18.348;2022-09-28T03:56:13;42.90;;;7.45;;
65581;SDS011;52231;40.090;18.348;2022-09-28T03:58:42;33.45;;;6.70;;
65581;SDS011;52231;40.090;18.348;2022-09-28T04:01:12;20.15;;;6.07;;
65581;SDS011;52231;40.090;18.348;2022-09-28T04:03:44;17.20;;;4.68;;
65581;SDS011;52231;40.090;18.348;2022-09-28T04:06:13;18.70;;;5.13;;
65581;SDS011;52231;40.090;18.348;2022-09-28T04:08:41;19.02;;;5.93;;
65581;SDS011;52231;40.090;18.348;2022-09-28T04:11:10;22.88;;;6.68;;
65581;SDS011;52231;40.090;18.348;2022-09-28T04:13:39;17.73;;;5.53;;
65581;SDS011;52231;40.090;18.348;2022-09-28T04:16:10;17.90;;;5.53;;
65581;SDS011;52231;40.090;18.348;2022-09-28T04:18:57;13.23;;;5.13;;
65581;SDS011;52231;40.090;18.348;2022-09-28T04:21:45;10.98;;;4.20;;
65581;SDS011;52231;40.090;18.348;2022-09-28T04:24:14;11.77;;;4.25;;
65581;SDS011;52231;40.090;18.348;2022-09-28T04:26:42;9.25;;;3.92;;
65581;SDS011;52231;40.090;18.348;2022-09-28T04:29:12;13.63;;;4.32;;
65581;SDS011;52231;40.090;18.348;2022-09-28T04:31:47;12.80;;;3.95;;
65581;SDS011;52231;40.090;18.348;2022-09-28T04:34:27;18.83;;;4.75;;
65581;SDS011;52231;40.090;18.348;2022-09-28T04:36:57;13.07;;;3.88;;
65581;SDS011;52231;40.090;18.348;2022-09-28T04:39:25;14.00;;;4.20;;
65581;SDS011;52231;40.090;18.348;2022-09-28T04:41:55;11.95;;;4.80;;
65581;SDS011;52231;40.090;18.348;2022-09-28T04:46:57;13.93;;;4.72;;
65581;SDS011;52231;40.090;18.348;2022-09-28T04:49:29;12.10;;;4.30;;
65581;SDS011;52231;40.090;18.348;2022-09-28T04:52:07;12.52;;;4.57;;
65581;SDS011;52231;40.090;18.348;2022-09-28T04:54:53;14.75;;;4.82;;
65581;SDS011;52231;40.090;18.348;2022-09-28T04:57:23;15.60;;;4.80;;
65581;SDS011;52231;40.090;18.348;2022-09-28T04:59:51;12.43;;;4.57;;
65581;SDS011;52231;40.090;18.348;2022-09-28T05:02:19;14.15;;;4.25;;
65581;SDS011;52231;40.090;18.348;2022-09-28T05:05:10;14.82;;;4.40;;
65581;SDS011;52231;40.090;18.348;2022-09-28T05:08:04;13.90;;;4.60;;
65581;SDS011;52231;40.090;18.348;2022-09-28T05:10:33;11.23;;;4.35;;
65581;SDS011;52231;40.090;18.348;2022-09-28T05:13:02;12.00;;;4.43;;
65581;SDS011;52231;40.090;18.348;2022-09-28T05:17:58;12.55;;;4.90;;
65581;SDS011;52231;40.090;18.348;2022-09-28T05:20:33;12.00;;;5.35;;
65581;SDS011;52231;40.090;18.348;2022-09-28T05:23:10;15.98;;;5.63;;
65581;SDS011;52231;40.090;18.348;2022-09-28T05:28:25;13.15;;;4.72;;
65581;SDS011;52231;40.090;18.348;2022-09-28T05:31:15;17.30;;;4.88;;
65581;SDS011;52231;40.090;18.348;2022-09-28T05:34:15;21.55;;;5.47;;
65581;SDS011;52231;40.090;18.348;2022-09-28T05:36:44;14.60;;;5.18;;
65581;SDS011;52231;40.090;18.348;2022-09-28T05:39:12;13.25;;;4.82;;
65581;SDS011;52231;40.090;18.348;2022-09-28T05:41:41;18.33;;;4.68;;
65581;SDS011;52231;40.090;18.348;2022-09-28T05:44:09;13.48;;;4.40;;
65581;SDS011;52231;40.090;18.348;2022-09-28T05:46:37;12.32;;;3.70;;
65581;SDS011;52231;40.090;18.348;2022-09-28T05:49:08;11.55;;;3.60;;
65581;SDS011;52231;40.090;18.348;2022-09-28T05:51:36;10.73;;;4.32;;
65581;SDS011;52231;40.090;18.348;2022-09-28T05:54:07;15.32;;;4.30;;
65581;SDS011;52231;40.090;18.348;2022-09-28T05:56:39;12.80;;;4.18;;
65581;SDS011;52231;40.090;18.348;2022-09-28T05:59:10;14.15;;;3.58;;
65581;SDS011;52231;40.090;18.348;2022-09-28T06:01:39;12.35;;;3.28;;
65581;SDS011;52231;40.090;18.348;2022-09-28T06:04:09;10.18;;;2.83;;
65581;SDS011;52231;40.090;18.348;2022-09-28T06:06:37;13.32;;;3.20;;
65581;SDS011;52231;40.090;18.348;2022-09-28T06:09:06;8.63;;;2.42;;
65581;SDS011;52231;40.090;18.348;2022-09-28T06:11:57;9.50;;;2.40;;
65581;SDS011;52231;40.090;18.348;2022-09-28T06:14:37;8.38;;;2.60;;
65581;SDS011;52231;40.090;18.348;2022-09-28T06:17:05;8.70;;;2.65;;
65581;SDS011;52231;40.090;18.348;2022-09-28T06:19:33;8.32;;;2.40;;
65581;SDS011;52231;40.090;18.348;2022-09-28T06:22:20;14.02;;;3.00;;
65581;SDS011;52231;40.090;18.348;2022-09-28T06:25:08;11.40;;;2.30;;
65581;SDS011;52231;40.090;18.348;2022-09-28T06:27:38;7.05;;;2.28;;
65581;SDS011;52231;40.090;18.348;2022-09-28T06:30:28;12.20;;;2.40;;
65581;SDS011;52231;40.090;18.348;2022-09-28T06:32:58;11.20;;;2.58;;
65581;SDS011;52231;40.090;18.348;2022-09-28T06:35:29;10.52;;;2.40;;
65581;SDS011;52231;40.090;18.348;2022-09-28T06:37:58;6.30;;;2.28;;
65581;SDS011;52231;40.090;18.348;2022-09-28T06:40:26;8.43;;;1.80;;
65581;SDS011;52231;40.090;18.348;2022-09-28T06:45:44;9.90;;;3.10;;
65581;SDS011;52231;40.090;18.348;2022-09-28T06:48:44;5.97;;;1.83;;
65581;SDS011;52231;40.090;18.348;2022-09-28T06:51:17;9.27;;;2.10;;
65581;SDS011;52231;40.090;18.348;2022-09-28T06:54:08;10.63;;;2.22;;
65581;SDS011;52231;40.090;18.348;2022-09-28T06:56:43;5.80;;;2.05;;
65581;SDS011;52231;40.090;18.348;2022-09-28T06:59:11;9.10;;;2.25;;
65581;SDS011;52231;40.090;18.348;2022-09-28T07:01:39;6.25;;;2.50;;
65581;SDS011;52231;40.090;18.348;2022-09-28T07:04:31;8.90;;;1.92;;
65581;SDS011;52231;40.090;18.348;2022-09-28T07:07:25;6.63;;;2.03;;
65581;SDS011;52231;40.090;18.348;2022-09-28T07:10:16;7.50;;;2.05;;
65581;SDS011;52231;40.090;18.348;2022-09-28T07:13:02;10.05;;;1.80;;
65581;SDS011;52231;40.090;18.348;2022-09-28T07:15:44;7.57;;;1.80;;
65581;SDS011;52231;40.090;18.348;2022-09-28T07:18:14;7.90;;;1.52;;
65581;SDS011;52231;40.090;18.348;2022-09-28T07:20:44;9.85;;;1.63;;
65581;SDS011;52231;40.090;18.348;2022-09-28T07:23:18;6.75;;;1.40;;
65581;SDS011;52231;40.090;18.348;2022-09-28T07:26:05;5.57;;;1.60;;
65581;SDS011;52231;40.090;18.348;2022-09-28T07:29:10;11.98;;;1.40;;
65581;SDS011;52231;40.090;18.348;2022-09-28T07:31:59;9.00;;;1.52;;
65581;SDS011;52231;40.090;18.348;2022-09-28T07:35:00;7.15;;;1.20;;
65581;SDS011;52231;40.090;18.348;2022-09-28T07:38:00;7.53;;;1.60;;
65581;SDS011;52231;40.090;18.348;2022-09-28T07:40:31;8.32;;;1.60;;
65581;SDS011;52231;40.090;18.348;2022-09-28T07:43:20;9.98;;;1.98;;
65581;SDS011;52231;40.090;18.348;2022-09-28T07:45:51;8.05;;;1.48;;
65581;SDS011;52231;40.090;18.348;2022-09-28T07:48:23;7.60;;;1.58;;
65581;SDS011;52231;40.090;18.348;2022-09-28T07:51:15;9.85;;;1.83;;
65581;SDS011;52231;40.090;18.348;2022-09-28T07:54:14;10.52;;;1.88;;
65581;SDS011;52231;40.090;18.348;2022-09-28T07:57:07;8.65;;;1.63;;
65581;SDS011;52231;40.090;18.348;2022-09-28T07:59:47;6.13;;;1.15;;
65581;SDS011;52231;40.090;18.348;2022-09-28T08:02:38;8.02;;;1.45;;
65581;SDS011;52231;40.090;18.348;2022-09-28T08:05:07;6.55;;;1.30;;
65581;SDS011;52231;40.090;18.348;2022-09-28T08:07:36;7.95;;;1.40;;
65581;SDS011;52231;40.090;18.348;2022-09-28T08:10:10;5.20;;;1.45;;
65581;SDS011;52231;40.090;18.348;2022-09-28T08:12:58;9.02;;;1.50;;
65581;SDS011;52231;40.090;18.348;2022-09-28T08:15:51;11.32;;;1.52;;
65581;SDS011;52231;40.090;18.348;2022-09-28T08:18:38;10.32;;;1.73;;
65581;SDS011;52231;40.090;18.348;2022-09-28T08:21:08;9.75;;;1.80;;
65581;SDS011;52231;40.090;18.348;2022-09-28T08:23:55;6.63;;;1.55;;
65581;SDS011;52231;40.090;18.348;2022-09-28T08:26:23;9.48;;;1.73;;
65581;SDS011;52231;40.090;18.348;2022-09-28T08:28:52;5.75;;;1.30;;
65581;SDS011;52231;40.090;18.348;2022-09-28T08:31:58;6.25;;;1.42;;
65581;SDS011;52231;40.090;18.348;2022-09-28T08:34:37;8.20;;;1.67;;
65581;SDS011;52231;40.090;18.348;2022-09-28T08:37:36;9.45;;;1.85;;
65581;SDS011;52231;40.090;18.348;2022-09-28T08:40:37;9.77;;;2.13;;
65581;SDS011;52231;40.090;18.348;2022-09-28T08:44:02;12.63;;;2.00;;
65581;SDS011;52231;40.090;18.348;2022-09-28T08:47:15;7.93;;;1.60;;
65581;SDS011;52231;40.090;18.348;2022-09-28T08:50:28;10.77;;;1.77;;
65581;SDS011;52231;40.090;18.348;2022-09-28T08:53:25;7.45;;;1.50;;
65581;SDS011;52231;40.090;18.348;2022-09-28T08:56:23;5.45;;;1.35;;
65581;SDS011;52231;40.090;18.348;2022-09-28T08:59:03;11.65;;;1.50;;
65581;SDS011;52231;40.090;18.348;2022-09-28T09:02:01;8.32;;;1.33;;
65581;SDS011;52231;40.090;18.348;2022-09-28T09:04:32;8.55;;;1.40;;
65581;SDS011;52231;40.090;18.348;2022-09-28T09:10:10;8.55;;;1.90;;
65581;SDS011;52231;40.090;18.348;2022-09-28T09:13:03;6.30;;;1.40;;
65581;SDS011;52231;40.090;18.348;2022-09-28T09:18:59;5.93;;;1.40;;
65581;SDS011;52231;40.090;18.348;2022-09-28T09:25:17;7.88;;;1.55;;
65581;SDS011;52231;40.090;18.348;2022-09-28T09:28:10;6.20;;;1.40;;
65581;SDS011;52231;40.090;18.348;2022-09-28T09:31:05;5.68;;;1.40;;
65581;SDS011;52231;40.090;18.348;2022-09-28T09:33:54;4.85;;;1.23;;
65581;SDS011;52231;40.090;18.348;2022-09-28T09:36:49;10.45;;;1.30;;
65581;SDS011;52231;40.090;18.348;2022-09-28T09:49:41;7.22;;;1.45;;
65581;SDS011;52231;40.090;18.348;2022-09-28T09:52:26;7.18;;;1.50;;
65581;SDS011;52231;40.090;18.348;2022-09-28T09:55:19;8.63;;;1.75;;
65581;SDS011;52231;40.090;18.348;2022-09-28T10:01:34;6.07;;;1.33;;
65581;SDS011;52231;40.090;18.348;2022-09-28T10:06:48;9.55;;;1.75;;
65581;SDS011;52231;40.090;18.348;2022-09-28T10:09:21;5.55;;;1.48;;
65581;SDS011;52231;40.090;18.348;2022-09-28T10:12:17;5.60;;;1.80;;
65581;SDS011;52231;40.090;18.348;2022-09-28T10:14:47;9.88;;;1.80;;
65581;SDS011;52231;40.090;18.348;2022-09-28T10:17:18;9.50;;;1.45;;
65581;SDS011;52231;40.090;18.348;2022-09-28T10:20:12;5.47;;;1.48;;
65581;SDS011;52231;40.090;18.348;2022-09-28T10:23:21;8.10;;;1.30;;
65581;SDS011;52231;40.090;18.348;2022-09-28T10:25:58;8.35;;;1.50;;
65581;SDS011;52231;40.090;18.348;2022-09-28T10:28:55;7.28;;;1.17;;
65581;SDS011;52231;40.090;18.348;2022-09-28T10:34:27;8.80;;;1.67;;
65581;SDS011;52231;40.090;18.348;2022-09-28T10:37:05;8.65;;;1.52;;
65581;SDS011;52231;40.090;18.348;2022-09-28T10:40:07;7.18;;;1.63;;
65581;SDS011;52231;40.090;18.348;2022-09-28T10:43:04;8.18;;;1.42;;
65581;SDS011;52231;40.090;18.348;2022-09-28T10:46:11;6.85;;;1.30;;
65581;SDS011;52231;40.090;18.348;2022-09-28T10:52:00;8.00;;;1.70;;
65581;SDS011;52231;40.090;18.348;2022-09-28T10:54:36;7.55;;;1.13;;
65581;SDS011;52231;40.090;18.348;2022-09-28T10:57:23;7.72;;;1.63;;
65581;SDS011;52231;40.090;18.348;2022-09-28T11:00:05;6.45;;;1.30;;
65581;SDS011;52231;40.090;18.348;2022-09-28T11:03:17;8.23;;;1.35;;
65581;SDS011;52231;40.090;18.348;2022-09-28T11:05:54;7.20;;;1.00;;
65581;SDS011;52231;40.090;18.348;2022-09-28T11:08:52;9.32;;;1.20;;
65581;SDS011;52231;40.090;18.348;2022-09-28T11:11:21;3.88;;;0.77;;
65581;SDS011;52231;40.090;18.348;2022-09-28T11:13:59;5.00;;;1.30;;
65581;SDS011;52231;40.090;18.348;2022-09-28T11:16:32;4.10;;;1.05;;
65581;SDS011;52231;40.090;18.348;2022-09-28T11:21:53;7.22;;;1.42;;
65581;SDS011;52231;40.090;18.348;2022-09-28T11:24:30;8.63;;;1.15;;
65581;SDS011;52231;40.090;18.348;2022-09-28T11:27:01;8.40;;;1.40;;
65581;SDS011;52231;40.090;18.348;2022-09-28T11:29:55;6.82;;;1.50;;
65581;SDS011;52231;40.090;18.348;2022-09-28T11:32:42;5.53;;;1.20;;
65581;SDS011;52231;40.090;18.348;2022-09-28T11:35:57;5.95;;;1.35;;
65581;SDS011;52231;40.090;18.348;2022-09-28T11:44:42;8.50;;;1.40;;
65581;SDS011;52231;40.090;18.348;2022-09-28T11:50:44;7.63;;;1.20;;
65581;SDS011;52231;40.090;18.348;2022-09-28T11:53:16;7.80;;;1.25;;
65581;SDS011;52231;40.090;18.348;2022-09-28T11:59:07;5.32;;;1.13;;
65581;SDS011;52231;40.090;18.348;2022-09-28T12:01:50;6.55;;;1.30;;
65581;SDS011;52231;40.090;18.348;2022-09-28T12:04:55;6.95;;;1.52;;
65581;SDS011;52231;40.090;18.348;2022-09-28T12:07:42;5.65;;;1.30;;
65581;SDS011;52231;40.090;18.348;2022-09-28T12:14:14;5.15;;;1.23;;
65581;SDS011;52231;40.090;18.348;2022-09-28T12:16:51;7.75;;;2.33;;
65581;SDS011;52231;40.090;18.348;2022-09-28T12:25:38;5.78;;;1.50;;
65581;SDS011;52231;40.090;18.348;2022-09-28T12:28:42;10.30;;;1.75;;
65581;SDS011;52231;40.090;18.348;2022-09-28T12:31:36;6.47;;;1.63;;
65581;SDS011;52231;40.090;18.348;2022-09-28T12:34:06;4.93;;;1.35;;
65581;SDS011;52231;40.090;18.348;2022-09-28T12:36:45;7.15;;;1.15;;
65581;SDS011;52231;40.090;18.348;2022-09-28T12:40:22;6.47;;;1.17;;
65581;SDS011;52231;40.090;18.348;2022-09-28T12:51:55;5.00;;;1.00;;
65581;SDS011;52231;40.090;18.348;2022-09-28T13:00:11;8.98;;;1.42;;
65581;SDS011;52231;40.090;18.348;2022-09-28T13:08:20;7.57;;;1.42;;
65581;SDS011;52231;40.090;18.348;2022-09-28T13:16:34;5.38;;;1.67;;
65581;SDS011;52231;40.090;18.348;2022-09-28T13:19:25;7.00;;;1.50;;
65581;SDS011;52231;40.090;18.348;2022-09-28T13:25:10;8.82;;;1.42;;
65581;SDS011;52231;40.090;18.348;2022-09-28T13:27:49;6.32;;;1.05;;
65581;SDS011;52231;40.090;18.348;2022-09-28T13:30:20;5.35;;;1.20;;
65581;SDS011;52231;40.090;18.348;2022-09-28T13:32:49;7.65;;;1.67;;
65581;SDS011;52231;40.090;18.348;2022-09-28T13:35:18;5.35;;;1.00;;
65581;SDS011;52231;40.090;18.348;2022-09-28T13:37:47;6.75;;;1.38;;
65581;SDS011;52231;40.090;18.348;2022-09-28T13:41:08;10.20;;;1.40;;
65581;SDS011;52231;40.090;18.348;2022-09-28T13:49:23;7.22;;;1.70;;
65581;SDS011;52231;40.090;18.348;2022-09-28T13:52:11;6.65;;;1.30;;
65581;SDS011;52231;40.090;18.348;2022-09-28T13:57:54;4.10;;;1.20;;
65581;SDS011;52231;40.090;18.348;2022-09-28T14:03:25;6.72;;;1.40;;
65581;SDS011;52231;40.090;18.348;2022-09-28T14:09:18;5.40;;;1.23;;
65581;SDS011;52231;40.090;18.348;2022-09-28T14:11:53;3.83;;;1.17;;
65581;SDS011;52231;40.090;18.348;2022-09-28T14:19:49;6.93;;;1.30;;
65581;SDS011;52231;40.090;18.348;2022-09-28T14:31:48;4.90;;;1.10;;
65581;SDS011;52231;40.090;18.348;2022-09-28T14:34:24;6.03;;;1.08;;
65581;SDS011;52231;40.090;18.348;2022-09-28T14:37:01;8.80;;;1.50;;
65581;SDS011;52231;40.090;18.348;2022-09-28T14:39:50;7.18;;;1.15;;
65581;SDS011;52231;40.090;18.348;2022-09-28T14:42:37;4.72;;;1.40;;
65581;SDS011;52231;40.090;18.348;2022-09-28T14:48:01;6.85;;;1.45;;
65581;SDS011;52231;40.090;18.348;2022-09-28T14:50:48;5.57;;;1.40;;
65581;SDS011;52231;40.090;18.348;2022-09-28T14:53:21;8.35;;;1.45;;
65581;SDS011;52231;40.090;18.348;2022-09-28T14:55:56;6.75;;;1.52;;
65581;SDS011;52231;40.090;18.348;2022-09-28T14:58:27;11.25;;;1.58;;
65581;SDS011;52231;40.090;18.348;2022-09-28T15:01:00;4.78;;;1.40;;
65581;SDS011;52231;40.090;18.348;2022-09-28T15:03:34;6.88;;;1.50;;
65581;SDS011;52231;40.090;18.348;2022-09-28T15:06:05;5.72;;;1.25;;
65581;SDS011;52231;40.090;18.348;2022-09-28T15:08:40;7.32;;;1.40;;
65581;SDS011;52231;40.090;18.348;2022-09-28T15:11:21;16.17;;;1.88;;
65581;SDS011;52231;40.090;18.348;2022-09-28T15:14:03;6.15;;;1.27;;
65581;SDS011;52231;40.090;18.348;2022-09-28T15:16:33;5.78;;;1.40;;
65581;SDS011;52231;40.090;18.348;2022-09-28T15:21:33;9.27;;;1.80;;
65581;SDS011;52231;40.090;18.348;2022-09-28T15:24:22;9.85;;;1.90;;
65581;SDS011;52231;40.090;18.348;2022-09-28T15:27:03;6.95;;;1.52;;
65581;SDS011;52231;40.090;18.348;2022-09-28T15:29:55;6.38;;;1.73;;
65581;SDS011;52231;40.090;18.348;2022-09-28T15:32:27;7.53;;;1.77;;
65581;SDS011;52231;40.090;18.348;2022-09-28T15:35:14;13.85;;;2.30;;
65581;SDS011;52231;40.090;18.348;2022-09-28T15:37:47;12.35;;;2.40;;
65581;SDS011;52231;40.090;18.348;2022-09-28T15:40:27;11.50;;;2.50;;
65581;SDS011;52231;40.090;18.348;2022-09-28T15:48:51;8.00;;;1.70;;
65581;SDS011;52231;40.090;18.348;2022-09-28T15:51:26;8.30;;;2.28;;
65581;SDS011;52231;40.090;18.348;2022-09-28T15:53:57;9.20;;;2.47;;
65581;SDS011;52231;40.090;18.348;2022-09-28T15:56:30;7.60;;;1.88;;
65581;SDS011;52231;40.090;18.348;2022-09-28T15:59:09;10.00;;;2.45;;
65581;SDS011;52231;40.090;18.348;2022-09-28T16:01:47;11.05;;;3.40;;
65581;SDS011;52231;40.090;18.348;2022-09-28T16:07:21;8.63;;;2.80;;
65581;SDS011;52231;40.090;18.348;2022-09-28T16:12:57;11.48;;;2.17;;
65581;SDS011;52231;40.090;18.348;2022-09-28T16:15:35;5.80;;;2.00;;
65581;SDS011;52231;40.090;18.348;2022-09-28T16:18:14;9.43;;;1.98;;
65581;SDS011;52231;40.090;18.348;2022-09-28T16:20:47;11.32;;;2.20;;
65581;SDS011;52231;40.090;18.348;2022-09-28T16:23:37;10.77;;;2.60;;
65581;SDS011;52231;40.090;18.348;2022-09-28T16:26:11;9.57;;;2.08;;
65581;SDS011;52231;40.090;18.348;2022-09-28T16:33:51;9.95;;;2.00;;
65581;SDS011;52231;40.090;18.348;2022-09-28T16:36:21;10.43;;;2.40;;
65581;SDS011;52231;40.090;18.348;2022-09-28T16:38:53;8.30;;;1.90;;
65581;SDS011;52231;40.090;18.348;2022-09-28T16:41:24;7.95;;;1.90;;
65581;SDS011;52231;40.090;18.348;2022-09-28T16:43:55;11.70;;;1.90;;
65581;SDS011;52231;40.090;18.348;2022-09-28T16:46:37;10.73;;;2.13;;
65581;SDS011;52231;40.090;18.348;2022-09-28T16:49:05;7.90;;;2.10;;
65581;SDS011;52231;40.090;18.348;2022-09-28T16:51:33;7.75;;;1.98;;
65581;SDS011;52231;40.090;18.348;2022-09-28T16:54:11;8.40;;;2.05;;
65581;SDS011;52231;40.090;18.348;2022-09-28T16:57:07;12.27;;;2.45;;
65581;SDS011;52231;40.090;18.348;2022-09-28T16:59:38;8.45;;;2.35;;
65581;SDS011;52231;40.090;18.348;2022-09-28T17:05:11;10.52;;;2.45;;
65581;SDS011;52231;40.090;18.348;2022-09-28T17:08:00;11.23;;;2.45;;
65581;SDS011;52231;40.090;18.348;2022-09-28T17:10:36;9.15;;;2.88;;
65581;SDS011;52231;40.090;18.348;2022-09-28T17:13:28;11.85;;;3.38;;
65581;SDS011;52231;40.090;18.348;2022-09-28T17:16:04;13.27;;;4.05;;
65581;SDS011;52231;40.090;18.348;2022-09-28T17:18:37;16.58;;;4.25;;
65581;SDS011;52231;40.090;18.348;2022-09-28T17:21:08;14.20;;;4.10;;
65581;SDS011;52231;40.090;18.348;2022-09-28T17:23:47;13.13;;;4.05;;
65581;SDS011;52231;40.090;18.348;2022-09-28T17:26:45;17.00;;;3.83;;
65581;SDS011;52231;40.090;18.348;2022-09-28T17:29:16;13.52;;;3.70;;
65581;SDS011;52231;40.090;18.348;2022-09-28T17:31:47;13.23;;;3.95;;
65581;SDS011;52231;40.090;18.348;2022-09-28T17:36:49;13.02;;;3.42;;
65581;SDS011;52231;40.090;18.348;2022-09-28T17:39:18;12.55;;;4.00;;
65581;SDS011;52231;40.090;18.348;2022-09-28T17:41:47;12.70;;;3.95;;
65581;SDS011;52231;40.090;18.348;2022-09-28T17:44:15;16.48;;;4.38;;
65581;SDS011;52231;40.090;18.348;2022-09-28T17:46:46;14.43;;;4.32;;
65581;SDS011;52231;40.090;18.348;2022-09-28T17:49:16;20.17;;;4.68;;
65581;SDS011;52231;40.090;18.348;2022-09-28T17:51:45;17.58;;;5.60;;
65581;SDS011;52231;40.090;18.348;2022-09-28T17:54:13;16.70;;;5.07;;
65581;SDS011;52231;40.090;18.348;2022-09-28T17:56:43;16.65;;;4.15;;
65581;SDS011;52231;40.090;18.348;2022-09-28T17:59:12;17.58;;;3.92;;
65581;SDS011;52231;40.090;18.348;2022-09-28T18:01:42;13.70;;;4.03;;
65581;SDS011;52231;40.090;18.348;2022-09-28T18:06:49;11.73;;;3.67;;
65581;SDS011;52231;40.090;18.348;2022-09-28T18:09:17;16.85;;;4.25;;
65581;SDS011;52231;40.090;18.348;2022-09-28T18:12:00;14.73;;;3.92;;
65581;SDS011;52231;40.090;18.348;2022-09-28T18:14:31;11.73;;;4.28;;
65581;SDS011;52231;40.090;18.348;2022-09-28T18:16:59;13.50;;;4.38;;
65581;SDS011;52231;40.090;18.348;2022-09-28T18:19:32;15.93;;;4.68;;
65581;SDS011;52231;40.090;18.348;2022-09-28T18:24:28;13.90;;;4.10;;
65581;SDS011;52231;40.090;18.348;2022-09-28T18:26:58;18.05;;;4.35;;
65581;SDS011;52231;40.090;18.348;2022-09-28T18:29:26;15.35;;;4.88;;
65581;SDS011;52231;40.090;18.348;2022-09-28T18:31:59;13.30;;;4.03;;
65581;SDS011;52231;40.090;18.348;2022-09-28T18:34:28;14.45;;;3.92;;
65581;SDS011;52231;40.090;18.348;2022-09-28T18:36:56;16.88;;;4.65;;
65581;SDS011;52231;40.090;18.348;2022-09-28T18:39:25;18.35;;;4.75;;
65581;SDS011;52231;40.090;18.348;2022-09-28T18:41:53;11.43;;;3.92;;
65581;SDS011;52231;40.090;18.348;2022-09-28T18:46:49;14.15;;;4.15;;
65581;SDS011;52231;40.090;18.348;2022-09-28T18:51:46;12.30;;;3.83;;
65581;SDS011;52231;40.090;18.348;2022-09-28T18:56:43;16.45;;;4.22;;
65581;SDS011;52231;40.090;18.348;2022-09-28T18:59:12;14.60;;;4.03;;
65581;SDS011;52231;40.090;18.348;2022-09-28T19:01:40;14.73;;;5.07;;
65581;SDS011;52231;40.090;18.348;2022-09-28T19:04:10;14.10;;;4.07;;
65581;SDS011;52231;40.090;18.348;2022-09-28T19:06:39;10.13;;;3.92;;